createdAt,value
2023-04-12T00:01:23.762Z,8.17
2023-04-12T00:03:50.608Z,9.20
2023-04-12T00:06:14.132Z,7.67
2023-04-12T00:08:35.495Z,6.20
2023-04-12T00:10:56.743Z,7.90
2023-04-12T00:13:18.007Z,6.40
2023-04-12T00:15:39.655Z,9.00
2023-04-12T00:18:00.699Z,8.20
2023-04-12T00:20:24.496Z,7.33
2023-04-12T00:22:45.829Z,7.40
2023-04-12T00:25:07.425Z,6.17
2023-04-12T00:27:29.185Z,7.70
2023-04-12T00:29:50.333Z,7.93
2023-04-12T00:32:11.904Z,7.23
2023-04-12T00:34:33.321Z,7.63
2023-04-12T00:36:55.892Z,7.53
2023-04-12T00:39:17.207Z,11.70
2023-04-12T00:41:38.764Z,6.17
2023-04-12T00:44:00.021Z,6.60
2023-04-12T00:46:21.180Z,6.33
2023-04-12T00:48:42.841Z,6.23
2023-04-12T00:51:04.884Z,6.97
2023-04-12T00:53:29.307Z,7.80
2023-04-12T00:55:51.301Z,9.23
2023-04-12T00:58:12.391Z,7.47
2023-04-12T01:00:34.940Z,7.33
2023-04-12T01:03:00.091Z,8.47
2023-04-12T01:05:23.474Z,9.50
2023-04-12T01:07:51.474Z,10.63
2023-04-12T01:10:23.727Z,9.40
2023-04-12T01:12:48.572Z,6.27
2023-04-12T01:15:11.460Z,7.23
2023-04-12T01:17:38.343Z,7.00
2023-04-12T01:20:13.094Z,7.07
2023-04-12T01:22:39.633Z,6.93
2023-04-12T01:25:05.515Z,6.70
2023-04-12T01:27:33.553Z,9.20
2023-04-12T01:29:56.259Z,8.63
2023-04-12T01:32:18.141Z,6.03
2023-04-12T01:34:41.433Z,10.33
2023-04-12T01:37:03.739Z,5.93
2023-04-12T01:39:24.882Z,8.30
2023-04-12T01:41:48.929Z,5.90
2023-04-12T01:44:13.498Z,8.23
2023-04-12T01:46:36.115Z,7.13
2023-04-12T01:48:57.903Z,7.03
2023-04-12T01:51:21.377Z,5.70
2023-04-12T01:53:47.807Z,7.23
2023-04-12T01:56:10.662Z,6.17
2023-04-12T01:58:32.396Z,7.00
2023-04-12T02:00:55.931Z,5.07
2023-04-12T02:03:18.443Z,5.23
2023-04-12T02:05:39.793Z,4.50
2023-04-12T02:08:03.156Z,5.53
2023-04-12T02:10:33.844Z,3.93
2023-04-12T02:12:55.410Z,4.70
2023-04-12T02:15:16.752Z,6.20
2023-04-12T02:17:41.101Z,6.03
2023-04-12T02:20:04.173Z,5.47
2023-04-12T02:22:25.484Z,6.17
2023-04-12T02:24:47.800Z,4.37
2023-04-12T02:27:09.808Z,4.83
2023-04-12T02:29:31.758Z,5.43
2023-04-12T02:31:55.497Z,4.23
2023-04-12T02:34:18.924Z,6.17
2023-04-12T02:36:39.923Z,5.07
2023-04-12T02:39:01.124Z,6.13
2023-04-12T02:41:22.747Z,6.90
2023-04-12T02:43:44.020Z,7.13
2023-04-12T02:46:05.321Z,6.27
2023-04-12T02:48:26.625Z,5.13
2023-04-12T02:50:49.362Z,5.13
2023-04-12T02:53:10.488Z,3.90
2023-04-12T02:55:31.668Z,5.17
2023-04-12T02:57:53.572Z,5.00
2023-04-12T03:00:16.272Z,6.07
2023-04-12T03:02:37.383Z,7.80
2023-04-12T03:04:58.747Z,5.93
2023-04-12T03:07:22.120Z,6.23
2023-04-12T03:09:44.649Z,3.67
2023-04-12T03:12:06.483Z,3.63
2023-04-12T03:14:27.799Z,3.90
2023-04-12T03:16:51.364Z,3.53
2023-04-12T03:19:13.275Z,4.10
2023-04-12T03:21:34.378Z,4.30
2023-04-12T03:23:57.294Z,3.77
2023-04-12T03:26:20.433Z,5.13
2023-04-12T03:28:45.572Z,3.77
2023-04-12T03:31:07.265Z,5.03
2023-04-12T03:33:29.427Z,3.73
2023-04-12T03:35:50.978Z,3.70
2023-04-12T03:38:12.326Z,6.23
2023-04-12T03:40:35.292Z,3.83
2023-04-12T03:42:56.430Z,3.80
2023-04-12T03:45:17.448Z,4.03
2023-04-12T03:47:38.486Z,4.87
2023-04-12T03:50:11.600Z,5.20
2023-04-12T03:52:33.715Z,4.27
2023-04-12T03:54:55.376Z,4.13
2023-04-12T03:57:17.714Z,4.20
2023-04-12T03:59:38.703Z,4.90
2023-04-12T04:02:01.198Z,5.17
2023-04-12T04:04:23.755Z,4.67
2023-04-12T04:06:46.358Z,3.93
2023-04-12T04:09:07.899Z,4.70
2023-04-12T04:11:29.131Z,3.80
2023-04-12T04:13:51.898Z,4.30
2023-04-12T04:16:14.050Z,4.07
2023-04-12T04:18:36.392Z,2.93
2023-04-12T04:20:57.414Z,4.47
2023-04-12T04:23:18.623Z,3.77
2023-04-12T04:25:40.337Z,4.53
2023-04-12T04:28:02.731Z,4.20
2023-04-12T04:30:26.658Z,5.27
2023-04-12T04:32:48.301Z,3.97
2023-04-12T04:35:10.223Z,4.20
2023-04-12T04:37:31.517Z,3.83
2023-04-12T04:39:53.086Z,3.90
2023-04-12T04:42:14.259Z,3.90
2023-04-12T04:44:37.236Z,3.37
2023-04-12T04:47:00.792Z,4.50
2023-04-12T04:49:22.075Z,4.17
2023-04-12T04:51:43.030Z,3.77
2023-04-12T04:54:04.592Z,3.80
2023-04-12T04:56:26.295Z,3.70
2023-04-12T04:58:49.991Z,3.90
2023-04-12T05:01:13.439Z,4.63
2023-04-12T05:03:37.428Z,5.80
2023-04-12T05:05:58.805Z,4.93
2023-04-12T05:08:20.368Z,6.23
2023-04-12T05:10:41.873Z,3.30
2023-04-12T05:13:03.155Z,3.80
2023-04-12T05:15:24.396Z,3.50
2023-04-12T05:17:45.883Z,3.67
2023-04-12T05:20:11.060Z,3.33
2023-04-12T05:22:32.618Z,3.57
2023-04-12T05:24:54.204Z,4.13
2023-04-12T05:27:16.479Z,5.83
2023-04-12T05:29:37.851Z,4.37
2023-04-12T05:31:59.775Z,3.23
2023-04-12T05:34:21.101Z,7.10
2023-04-12T05:36:43.689Z,3.33
2023-04-12T05:39:05.053Z,4.07
2023-04-12T05:41:27.327Z,3.50
2023-04-12T05:43:48.493Z,3.73
2023-04-12T05:46:10.485Z,3.90
2023-04-12T05:48:31.931Z,3.87
2023-04-12T05:50:53.909Z,3.97
2023-04-12T05:53:16.598Z,4.00
2023-04-12T05:55:38.159Z,4.83
2023-04-12T05:57:59.357Z,3.90
2023-04-12T06:00:24.389Z,4.63
2023-04-12T06:02:46.533Z,4.87
2023-04-12T06:05:08.708Z,4.00
2023-04-12T06:07:30.816Z,5.00
2023-04-12T06:09:53.083Z,4.73
2023-04-12T06:12:14.386Z,3.30
2023-04-12T06:14:36.183Z,3.40
2023-04-12T06:16:57.533Z,3.53
2023-04-12T06:19:18.852Z,3.47
2023-04-12T06:21:40.991Z,3.43
2023-04-12T06:24:02.173Z,3.40
2023-04-12T06:26:24.962Z,3.20
2023-04-12T06:28:46.410Z,3.57
2023-04-12T06:31:08.151Z,2.87
2023-04-12T06:33:29.325Z,2.80
2023-04-12T06:35:51.105Z,2.40
2023-04-12T06:38:12.309Z,2.50
2023-04-12T06:40:33.807Z,2.37
2023-04-12T06:42:56.506Z,1.87
2023-04-12T06:45:17.627Z,2.30
2023-04-12T06:47:39.107Z,2.20
2023-04-12T06:50:00.483Z,1.97
2023-04-12T06:52:25.140Z,1.53
2023-04-12T06:54:47.122Z,2.03
2023-04-12T06:57:09.977Z,1.90
2023-04-12T06:59:32.566Z,1.70
2023-04-12T07:01:53.819Z,1.97
2023-04-12T07:04:15.127Z,2.87
2023-04-12T07:06:36.237Z,2.00
2023-04-12T07:08:57.736Z,2.20
2023-04-12T07:11:21.896Z,1.50
2023-04-12T07:13:43.036Z,1.90
2023-04-12T07:16:06.424Z,1.83
2023-04-12T07:18:27.576Z,1.83
2023-04-12T07:20:50.222Z,2.00
2023-04-12T07:23:11.447Z,1.97
2023-04-12T07:25:32.857Z,1.97
2023-04-12T07:27:53.986Z,1.87
2023-04-12T07:30:15.233Z,1.70
2023-04-12T07:32:37.860Z,1.73
2023-04-12T07:34:59.193Z,2.60
2023-04-12T07:37:20.488Z,1.70
2023-04-12T07:39:41.512Z,1.77
2023-04-12T07:42:03.196Z,2.40
2023-04-12T07:44:24.452Z,1.90
2023-04-12T07:46:46.141Z,1.80
2023-04-12T07:49:10.536Z,1.90
2023-04-12T07:51:32.840Z,1.90
2023-04-12T07:53:54.844Z,1.90
2023-04-12T07:56:16.317Z,1.83
2023-04-12T07:58:37.624Z,2.33
2023-04-12T08:01:01.064Z,1.77
2023-04-12T08:03:22.720Z,2.13
2023-04-12T08:05:45.531Z,1.93
2023-04-12T08:08:07.109Z,2.10
2023-04-12T08:10:28.365Z,1.80
2023-04-12T08:12:49.719Z,1.80
2023-04-12T08:15:11.905Z,2.10
2023-04-12T08:17:33.170Z,1.70
2023-04-12T08:19:54.648Z,1.93
2023-04-12T08:22:17.438Z,3.23
2023-04-12T08:24:38.475Z,1.77
2023-04-12T08:26:59.753Z,1.93
2023-04-12T08:29:21.011Z,2.10
2023-04-12T08:31:42.320Z,1.70
2023-04-12T08:34:03.441Z,1.80
2023-04-12T08:36:24.731Z,1.80
2023-04-12T08:38:52.205Z,1.53
2023-04-12T08:41:14.032Z,2.80
2023-04-12T08:43:35.936Z,1.90
2023-04-12T08:45:57.379Z,2.83
2023-04-12T08:48:19.115Z,2.00
2023-04-12T08:50:42.397Z,1.77
2023-04-12T08:53:03.662Z,1.80
2023-04-12T08:55:26.295Z,2.03
2023-04-12T08:57:48.309Z,1.60
2023-04-12T09:00:10.154Z,1.97
2023-04-12T09:02:32.020Z,1.80
2023-04-12T09:04:53.984Z,2.07
2023-04-12T09:07:15.546Z,1.50
2023-04-12T09:09:43.376Z,1.80
2023-04-12T09:12:09.058Z,1.70
2023-04-12T09:14:30.450Z,2.73
2023-04-12T09:16:52.024Z,4.57
2023-04-12T09:19:13.146Z,1.43
2023-04-12T09:21:35.743Z,4.77
2023-04-12T09:24:04.344Z,1.83
2023-04-12T09:26:29.807Z,1.90
2023-04-12T09:28:52.553Z,2.10
2023-04-12T09:31:16.800Z,1.73
2023-04-12T09:33:39.028Z,1.73
2023-04-12T09:36:01.092Z,1.87
2023-04-12T09:38:22.382Z,2.63
2023-04-12T09:40:43.632Z,1.97
2023-04-12T09:43:04.895Z,2.80
2023-04-12T09:45:28.170Z,3.90
2023-04-12T09:47:49.532Z,2.80
2023-04-12T09:50:20.592Z,3.27
2023-04-12T09:52:41.864Z,3.17
2023-04-12T09:55:04.173Z,3.30
2023-04-12T09:57:26.894Z,2.10
2023-04-12T09:59:49.862Z,3.70
2023-04-12T10:02:16.739Z,2.50
2023-04-12T10:04:40.392Z,2.63
2023-04-12T10:07:02.327Z,2.50
2023-04-12T10:09:24.148Z,4.53
2023-04-12T10:11:46.433Z,3.23
2023-04-12T10:14:07.851Z,2.63
2023-04-12T10:16:29.209Z,2.53
2023-04-12T10:18:53.201Z,2.50
2023-04-12T10:21:15.026Z,2.03
2023-04-12T10:23:36.710Z,2.50
2023-04-12T10:25:58.273Z,2.20
2023-04-12T10:28:21.519Z,4.20
2023-04-12T10:30:42.815Z,2.73
2023-04-12T10:33:14.540Z,3.47
2023-04-12T10:35:50.859Z,3.03
2023-04-12T10:38:13.821Z,3.13
2023-04-12T10:40:36.039Z,4.67
2023-04-12T10:43:18.180Z,3.50
2023-04-12T10:45:39.826Z,5.90
2023-04-12T10:48:01.872Z,2.87
2023-04-12T10:50:25.439Z,2.47
2023-04-12T10:53:09.115Z,2.67
2023-04-12T10:55:33.198Z,3.50
2023-04-12T10:57:54.647Z,1.70
2023-04-12T11:00:16.790Z,2.30
2023-04-12T11:03:05.555Z,2.47
2023-04-12T11:05:26.998Z,1.90
2023-04-12T11:07:48.255Z,2.60
2023-04-12T11:10:16.598Z,2.30
2023-04-12T11:12:39.726Z,2.60
2023-04-12T11:15:01.904Z,4.20
2023-04-12T11:17:24.475Z,1.73
2023-04-12T11:19:46.411Z,1.73
2023-04-12T11:22:08.755Z,2.03
2023-04-12T11:24:29.879Z,1.80
2023-04-12T11:26:51.571Z,1.73
2023-04-12T11:29:16.688Z,1.60
2023-04-12T11:31:39.231Z,4.97
2023-04-12T11:34:01.098Z,2.17
2023-04-12T11:36:22.303Z,4.17
2023-04-12T11:38:46.078Z,3.90
2023-04-12T11:41:09.678Z,1.93
2023-04-12T11:43:31.562Z,2.40
2023-04-12T11:45:58.538Z,1.67
2023-04-12T11:48:19.870Z,1.87
2023-04-12T11:50:41.672Z,1.50
2023-04-12T11:53:13.368Z,1.67
2023-04-12T11:55:34.985Z,3.00
2023-04-12T11:57:56.649Z,1.70
2023-04-12T12:00:18.460Z,1.33
2023-04-12T12:02:49.439Z,1.10
2023-04-12T12:05:22.831Z,1.40
2023-04-12T12:07:44.212Z,1.43
2023-04-12T12:10:06.708Z,2.77
2023-04-12T12:12:28.358Z,1.60
2023-04-12T12:14:49.352Z,1.57
2023-04-12T12:17:11.685Z,1.53
2023-04-12T12:19:37.230Z,1.93
2023-04-12T12:22:14.449Z,1.53
2023-04-12T12:24:38.874Z,1.20
2023-04-12T12:27:03.224Z,1.27
2023-04-12T12:29:26.173Z,1.30
2023-04-12T12:31:47.745Z,1.33
2023-04-12T12:34:13.085Z,1.10
2023-04-12T12:36:38.760Z,1.40
2023-04-12T12:39:05.718Z,1.20
2023-04-12T12:41:27.370Z,1.23
2023-04-12T12:43:48.817Z,1.47
2023-04-12T12:46:09.726Z,2.67
2023-04-12T12:48:30.852Z,1.60
2023-04-12T12:50:52.089Z,1.93
2023-04-12T12:53:14.753Z,2.27
2023-04-12T12:55:36.138Z,1.40
2023-04-12T13:00:24.037Z,1.40
2023-04-12T13:02:45.663Z,1.60
2023-04-12T13:05:10.915Z,1.13
2023-04-12T13:07:32.684Z,1.00
2023-04-12T13:09:55.548Z,1.20
2023-04-12T13:12:17.186Z,1.30
2023-04-12T13:14:38.338Z,1.20
2023-04-12T13:16:59.881Z,1.37
2023-04-12T13:19:21.303Z,2.20
2023-04-12T13:21:42.723Z,1.47
2023-04-12T13:24:04.233Z,1.10
2023-04-12T13:26:27.045Z,1.33
2023-04-12T13:28:48.442Z,1.37
2023-04-12T13:31:09.775Z,1.60
2023-04-12T13:33:31.050Z,1.63
2023-04-12T13:35:52.361Z,0.90
2023-04-12T13:38:13.703Z,1.07
2023-04-12T13:40:34.943Z,2.07
2023-04-12T13:42:57.490Z,1.30
2023-04-12T13:45:18.976Z,1.20
2023-04-12T13:47:40.902Z,0.90
2023-04-12T13:50:02.686Z,1.27
2023-04-12T13:52:24.157Z,1.90
2023-04-12T13:54:45.741Z,1.20
2023-04-12T13:57:07.966Z,1.20
2023-04-12T13:59:30.920Z,1.00
2023-04-12T14:01:52.141Z,1.03
2023-04-12T14:04:13.957Z,1.40
2023-04-12T14:06:36.368Z,1.43
2023-04-12T14:08:57.416Z,2.00
2023-04-12T14:11:18.795Z,1.10
2023-04-12T14:13:40.152Z,1.57
2023-04-12T14:16:03.063Z,1.33
2023-04-12T14:18:24.481Z,1.30
2023-04-12T14:20:49.115Z,1.57
2023-04-12T14:23:10.145Z,1.03
2023-04-12T14:25:31.593Z,1.17
2023-04-12T14:27:52.875Z,1.10
2023-04-12T14:30:15.093Z,1.10
2023-04-12T14:32:39.192Z,1.60
2023-04-12T14:35:01.007Z,0.90
2023-04-12T14:37:22.574Z,1.30
2023-04-12T14:39:44.965Z,1.00
2023-04-12T14:42:06.471Z,1.00
2023-04-12T14:44:27.972Z,1.80
2023-04-12T14:46:49.490Z,1.10
2023-04-12T14:49:12.165Z,1.00
2023-04-12T14:51:33.228Z,1.20
2023-04-12T14:53:54.489Z,1.47
2023-04-12T14:56:23.816Z,1.20
2023-04-12T14:58:45.981Z,2.00
2023-04-12T15:01:07.644Z,0.90
2023-04-12T15:03:31.522Z,1.13
2023-04-12T15:05:54.153Z,1.40
2023-04-12T15:08:15.583Z,1.63
2023-04-12T15:10:37.483Z,0.93
2023-04-12T15:12:59.154Z,2.87
2023-04-12T15:15:20.437Z,1.20
2023-04-12T15:17:41.801Z,2.77
2023-04-12T15:20:09.108Z,1.40
2023-04-12T15:22:35.346Z,2.00
2023-04-12T15:24:57.732Z,1.67
2023-04-12T15:27:18.928Z,1.80
2023-04-12T15:29:40.340Z,2.60
2023-04-12T15:32:01.560Z,1.00
2023-04-12T15:34:23.559Z,0.97
2023-04-12T15:36:46.003Z,1.30
2023-04-12T15:39:08.987Z,1.07
2023-04-12T15:41:33.774Z,0.90
2023-04-12T15:43:55.060Z,0.80
2023-04-12T15:46:16.361Z,0.50
2023-04-12T15:48:38.845Z,1.30
2023-04-12T15:51:00.347Z,1.33
2023-04-12T15:53:22.044Z,1.20
2023-04-12T15:55:47.141Z,1.30
2023-04-12T15:58:08.867Z,1.30
2023-04-12T16:00:30.778Z,2.43
2023-04-12T16:02:54.539Z,1.70
2023-04-12T16:05:16.782Z,3.87
2023-04-12T16:07:40.548Z,1.70
2023-04-12T16:10:03.326Z,4.03
2023-04-12T16:12:26.055Z,1.10
2023-04-12T16:14:48.833Z,1.60
2023-04-12T16:17:12.375Z,1.60
2023-04-12T16:19:33.676Z,2.50
2023-04-12T16:21:55.210Z,1.30
2023-04-12T16:24:16.334Z,1.43
2023-04-12T16:26:38.454Z,1.07
2023-04-12T16:29:01.960Z,1.00
2023-04-12T16:31:25.318Z,2.20
2023-04-12T16:33:46.941Z,2.33
2023-04-12T16:36:09.391Z,2.70
2023-04-12T16:38:30.889Z,2.33
2023-04-12T16:40:51.913Z,1.80
2023-04-12T16:43:13.262Z,1.20
2023-04-12T16:45:36.209Z,1.40
2023-04-12T16:47:57.597Z,1.20
2023-04-12T16:50:19.481Z,1.40
2023-04-12T16:52:41.355Z,1.60
2023-04-12T16:55:04.230Z,2.10
2023-04-12T16:57:25.625Z,1.60
2023-04-12T16:59:46.770Z,1.50
2023-04-12T17:02:09.509Z,2.47
2023-04-12T17:04:30.948Z,1.80
2023-04-12T17:06:52.755Z,1.37
2023-04-12T17:09:14.238Z,1.30
2023-04-12T17:11:36.155Z,1.40
2023-04-12T17:13:58.043Z,1.03
2023-04-12T17:16:19.465Z,1.50
2023-04-12T17:18:43.432Z,1.00
2023-04-12T17:21:04.662Z,1.50
2023-04-12T17:23:25.805Z,1.60
2023-04-12T17:25:47.472Z,1.63
2023-04-12T17:28:09.431Z,1.40
2023-04-12T17:30:30.761Z,1.20
2023-04-12T17:32:52.166Z,1.30
2023-04-12T17:35:14.680Z,1.57
2023-04-12T17:37:36.184Z,2.10
2023-04-12T17:39:58.028Z,3.00
2023-04-12T17:42:19.340Z,4.70
2023-04-12T17:44:41.214Z,2.07
2023-04-12T17:47:02.668Z,1.73
2023-04-12T17:49:25.377Z,1.80
2023-04-12T17:51:47.728Z,1.77
2023-04-12T17:54:08.587Z,2.00
2023-04-12T17:56:30.264Z,1.70
2023-04-12T17:58:51.279Z,2.77
2023-04-12T18:01:12.590Z,1.80
2023-04-12T18:03:34.262Z,2.43
2023-04-12T18:05:55.699Z,2.20
2023-04-12T18:08:18.321Z,2.20
2023-04-12T18:10:40.301Z,3.47
2023-04-12T18:13:01.498Z,1.97
2023-04-12T18:15:22.843Z,2.03
2023-04-12T18:17:44.748Z,2.00
2023-04-12T18:20:09.755Z,2.10
2023-04-12T18:22:30.988Z,1.63
2023-04-12T18:24:53.832Z,2.60
2023-04-12T18:27:14.911Z,1.90
2023-04-12T18:29:36.368Z,1.63
2023-04-12T18:31:57.499Z,1.60
2023-04-12T18:34:19.042Z,1.50
2023-04-12T18:36:42.244Z,1.50
2023-04-12T18:39:03.541Z,2.07
2023-04-12T18:41:25.947Z,1.53
2023-04-12T18:43:47.258Z,2.17
2023-04-12T18:46:08.987Z,2.00
2023-04-12T18:48:30.420Z,1.87
2023-04-12T18:50:51.837Z,1.30
2023-04-12T18:53:12.917Z,1.60
2023-04-12T18:55:34.393Z,2.00
2023-04-12T18:57:57.158Z,1.70
2023-04-12T19:00:19.656Z,1.30
2023-04-12T19:02:40.985Z,1.23
2023-04-12T19:05:02.975Z,1.20
2023-04-12T19:07:24.651Z,1.67
2023-04-12T19:09:47.774Z,1.90
2023-04-12T19:12:08.907Z,2.63
2023-04-12T19:14:32.094Z,1.47
2023-04-12T19:16:53.111Z,2.30
2023-04-12T19:19:14.641Z,1.37
2023-04-12T19:21:36.085Z,1.77
2023-04-12T19:23:57.689Z,1.63
2023-04-12T19:26:21.008Z,1.60
2023-04-12T19:28:43.277Z,1.43
2023-04-12T19:31:09.758Z,2.13
2023-04-12T19:33:32.134Z,1.80
2023-04-12T19:35:55.426Z,1.60
2023-04-12T19:38:16.690Z,1.20
2023-04-12T19:40:37.738Z,1.43
2023-04-12T19:42:59.084Z,1.40
2023-04-12T19:45:20.401Z,1.70
2023-04-12T19:47:44.932Z,1.97
2023-04-12T19:50:07.234Z,1.40
2023-04-12T19:52:28.793Z,3.63
2023-04-12T19:54:49.900Z,6.63
2023-04-12T19:57:11.729Z,3.30
2023-04-12T19:59:34.451Z,2.30
2023-04-12T20:01:58.033Z,1.60
2023-04-12T20:04:21.931Z,1.97
2023-04-12T20:06:44.944Z,1.80
2023-04-12T20:09:06.294Z,1.70
2023-04-12T20:11:27.237Z,1.77
2023-04-12T20:13:48.678Z,1.80
2023-04-12T20:16:10.180Z,2.20
2023-04-12T20:18:31.737Z,2.20
2023-04-12T20:20:57.677Z,2.20
2023-04-12T20:23:19.656Z,2.60
2023-04-12T20:25:41.693Z,2.10
2023-04-12T20:28:04.765Z,2.00
2023-04-12T20:30:26.404Z,2.10
2023-04-12T20:32:48.764Z,1.90
2023-04-12T20:35:10.575Z,2.40
2023-04-12T20:37:33.746Z,2.10
2023-04-12T20:39:57.572Z,1.97
2023-04-12T20:42:21.055Z,2.30
2023-04-12T20:44:42.164Z,2.80
2023-04-12T20:47:03.550Z,2.20
2023-04-12T20:49:27.844Z,2.40
2023-04-12T20:51:50.240Z,2.33
2023-04-12T20:54:12.832Z,2.30
2023-04-12T20:56:34.882Z,2.57
2023-04-12T20:58:56.440Z,2.40
2023-04-12T21:01:18.755Z,1.93
2023-04-12T21:03:40.783Z,2.40
2023-04-12T21:06:02.277Z,2.80
2023-04-12T21:08:23.764Z,2.17
2023-04-12T21:10:48.032Z,2.10
2023-04-12T21:13:09.076Z,1.80
2023-04-12T21:15:35.622Z,2.00
2023-04-12T21:17:57.263Z,1.83
2023-04-12T21:20:18.279Z,2.17
2023-04-12T21:22:40.117Z,2.17
2023-04-12T21:25:01.514Z,1.03
2023-04-12T21:27:24.052Z,2.43
2023-04-12T21:29:47.798Z,1.13
2023-04-12T21:32:09.946Z,1.40
2023-04-12T21:34:32.452Z,1.23
2023-04-12T21:36:55.242Z,1.20
2023-04-12T21:39:16.993Z,1.33
2023-04-12T21:41:38.264Z,1.37
2023-04-12T21:44:00.661Z,3.50
2023-04-12T21:46:26.986Z,1.50
2023-04-12T21:48:48.341Z,1.50
2023-04-12T21:51:12.325Z,1.70
2023-04-12T21:53:33.576Z,1.60
2023-04-12T21:55:54.809Z,1.33
2023-04-12T21:58:16.993Z,1.27
2023-04-12T22:00:39.773Z,1.07
2023-04-12T22:03:01.639Z,4.23
2023-04-12T22:05:23.072Z,1.13
2023-04-12T22:07:44.226Z,1.10
2023-04-12T22:10:06.057Z,1.07
2023-04-12T22:12:27.098Z,1.17
2023-04-12T22:14:50.059Z,1.33
2023-04-12T22:17:12.518Z,1.43
2023-04-12T22:19:33.615Z,1.30
2023-04-12T22:21:55.336Z,1.33
2023-04-12T22:24:16.498Z,2.03
2023-04-12T22:26:37.795Z,1.63
2023-04-12T22:28:59.141Z,1.37
2023-04-12T22:31:22.859Z,1.43
2023-04-12T22:33:47.381Z,1.43
2023-04-12T22:36:09.686Z,1.40
2023-04-12T22:38:30.676Z,1.50
2023-04-12T22:40:52.261Z,1.23
2023-04-12T22:43:18.446Z,1.40
2023-04-12T22:45:40.496Z,1.50
2023-04-12T22:48:02.642Z,1.30
2023-04-12T22:50:25.815Z,1.30
2023-04-12T22:52:50.187Z,1.40
2023-04-12T22:55:12.859Z,1.00
2023-04-12T22:57:35.042Z,1.10
2023-04-12T22:59:56.031Z,2.73
2023-04-12T23:02:17.600Z,1.30
2023-04-12T23:04:39.220Z,1.33
2023-04-12T23:07:02.378Z,1.30
2023-04-12T23:09:24.286Z,1.30
2023-04-12T23:11:47.290Z,1.53
2023-04-12T23:14:09.543Z,1.13
2023-04-12T23:16:35.467Z,1.20
2023-04-12T23:18:58.997Z,1.20
2023-04-12T23:21:23.496Z,1.40
2023-04-12T23:23:46.936Z,1.17
2023-04-12T23:26:08.312Z,1.10
2023-04-12T23:28:30.146Z,1.30
2023-04-12T23:30:52.340Z,1.20
2023-04-12T23:33:14.070Z,1.20
2023-04-12T23:35:39.361Z,1.20
2023-04-12T23:38:01.723Z,1.17
2023-04-12T23:40:25.653Z,1.33
2023-04-12T23:42:48.893Z,1.23
2023-04-12T23:45:10.627Z,1.37
2023-04-12T23:47:32.405Z,1.60
2023-04-12T23:49:53.662Z,1.13
2023-04-12T23:52:17.978Z,2.30
2023-04-12T23:54:39.195Z,1.23
2023-04-12T23:57:02.036Z,1.23
2023-04-12T23:59:23.357Z,1.40
